Time;durP1;ratioP1;P1;durP2;ratioP2;P2;SDS_P1;SDS_P2;PMS_P1;PMS_P2;Temp;Humidity;BMP_temperature;BMP_pressure;BME280_temperature;BME280_humidity;BME280_pressure;Samples;Min_cycle;Max_cycle;Signal;HPM_P1;HPM_P2
2022/07/05 00:00:05;;;;;;;6.75;3.55;;;;;;;22.90;59.96;99082.41;5087374;28;20056;-73
2022/07/05 00:02:32;;;;;;;6.25;3.45;;;;;;;22.84;60.06;99077.69;5087285;28;20307;-73
2022/07/05 00:05:00;;;;;;;4.45;3.17;;;;;;;22.83;60.46;99080.56;5087244;28;20052;-73
2022/07/05 00:07:27;;;;;;;3.97;2.85;;;;;;;22.93;60.09;99073.13;5086804;28;20056;-73
2022/07/05 00:09:58;;;;;;;5.78;3.13;;;;;;;22.90;60.87;99063.50;5087196;28;20056;-73
2022/07/05 00:12:31;;;;;;;5.00;3.58;;;;;;;22.82;61.32;99050.00;5087756;28;20052;-73
2022/07/05 00:14:59;;;;;;;3.55;2.75;;;;;;;22.64;61.91;99047.47;5086740;28;20227;-73
2022/07/05 00:17:26;;;;;;;6.57;4.63;;;;;;;22.76;61.60;99045.28;5086982;28;20052;-73
2022/07/05 00:19:54;;;;;;;5.57;4.03;;;;;;;22.87;61.03;99042.22;5086730;28;20063;-73
2022/07/05 00:22:21;;;;;;;6.95;5.13;;;;;;;22.91;60.91;99040.88;5086951;28;20056;-73
2022/07/05 00:24:50;;;;;;;5.43;4.05;;;;;;;22.94;60.71;99037.00;5086876;28;20057;-73
2022/07/05 00:27:19;;;;;;;4.50;3.83;;;;;;;23.01;60.92;99030.72;5086804;28;20063;-72
2022/07/05 20:36:00;;;;;;;3.85;2.72;;;;;;;20.85;55.01;99266.72;5144648;27;20128;-68
2022/07/05 20:38:27;;;;;;;6.35;3.20;;;;;;;20.48;55.47;99207.56;5123282;28;20062;-68
2022/07/05 20:40:55;;;;;;;5.32;3.63;;;;;;;20.95;55.39;99264.81;5123590;28;20195;-68
2022/07/05 20:43:22;;;;;;;5.57;3.90;;;;;;;20.98;54.69;99258.25;5123679;28;20062;-68
2022/07/05 20:45:49;;;;;;;6.90;4.38;;;;;;;21.07;55.02;99260.06;5104920;28;20059;-68
2022/07/05 20:48:17;;;;;;;5.82;3.90;;;;;;;21.13;53.55;99264.84;5122730;28;20056;-69
2022/07/05 20:50:44;;;;;;;3.65;2.95;;;;;;;21.17;53.59;99270.78;5122907;28;20310;-68
2022/07/05 20:53:12;;;;;;;4.38;3.60;;;;;;;21.23;54.79;99260.22;5122852;28;20055;-69
2022/07/05 20:55:40;;;;;;;5.22;4.10;;;;;;;21.24;53.73;99256.53;5122763;28;20066;-69
2022/07/05 20:58:07;;;;;;;4.47;3.80;;;;;;;21.16;53.74;99248.38;5122687;28;20056;-68
2022/07/05 21:00:34;;;;;;;3.80;3.25;;;;;;;21.30;54.28;99263.16;5122908;28;20056;-69
2022/07/05 21:03:03;;;;;;;5.45;3.08;;;;;;;21.33;53.33;99258.28;5123025;28;20035;-70
2022/07/05 21:05:30;;;;;;;3.65;2.75;;;;;;;21.28;53.21;99257.91;5104767;28;20246;-69
2022/07/05 21:07:57;;;;;;;3.95;2.90;;;;;;;21.29;53.35;99267.69;5122610;28;20059;-69
2022/07/05 21:10:26;;;;;;;4.07;2.97;;;;;;;21.18;52.85;99249.06;5122786;28;20056;-69
2022/07/05 21:12:53;;;;;;;4.47;2.90;;;;;;;20.79;53.50;99176.59;5122269;28;20113;-69
2022/07/05 21:15:20;;;;;;;3.40;2.53;;;;;;;21.37;53.35;99269.63;5122332;28;20253;-68
2022/07/05 21:17:48;;;;;;;4.15;2.47;;;;;;;21.26;52.66;99246.44;5122496;28;20113;-68
2022/07/05 21:20:17;;;;;;;3.63;2.50;;;;;;;21.38;53.10;99263.22;5122294;28;20060;-69
2022/07/05 21:22:45;;;;;;;3.22;2.60;;;;;;;21.37;52.40;99256.13;5122132;28;20101;-68
2022/07/05 21:25:13;;;;;;;5.35;3.10;;;;;;;21.37;52.04;99256.13;5122458;28;20056;-69
2022/07/05 21:27:42;;;;;;;5.35;2.90;;;;;;;21.37;51.50;99251.59;5122045;28;20069;-69
2022/07/05 21:30:09;;;;;;;7.65;3.80;;;;;;;21.37;52.33;99256.97;5122171;28;20101;-69
2022/07/05 21:32:37;;;;;;;3.80;3.05;;;;;;;21.29;52.17;99247.97;5122265;28;20060;-68
2022/07/05 21:35:05;;;;;;;3.92;2.92;;;;;;;21.37;52.28;99264.22;5121848;28;20319;-69
2022/07/05 21:37:32;;;;;;;3.42;2.55;;;;;;;21.37;52.90;99267.75;5121694;28;20056;-69
2022/07/05 21:39:59;;;;;;;4.05;2.80;;;;;;;21.33;52.78;99268.22;5122118;28;20074;-69
2022/07/05 21:42:26;;;;;;;4.25;3.05;;;;;;;21.34;52.67;99278.00;5122022;28;20071;-68
2022/07/05 21:44:55;;;;;;;3.35;2.20;;;;;;;21.38;53.16;99272.16;5122183;28;20048;-69
2022/07/05 21:47:22;;;;;;;3.08;2.20;;;;;;;21.32;53.15;99272.78;5108253;28;20102;-69
2022/07/05 21:49:49;;;;;;;4.30;3.03;;;;;;;21.31;52.95;99275.63;5108047;28;20056;-68
2022/07/05 21:52:17;;;;;;;5.07;4.30;;;;;;;21.30;53.26;99276.63;5108295;28;20056;-69
2022/07/05 21:54:44;;;;;;;5.90;4.57;;;;;;;21.29;52.65;99275.78;5108167;28;20060;-69
2022/07/05 21:57:11;;;;;;;4.97;3.92;;;;;;;21.21;52.63;99286.47;5108317;28;20093;-68
2022/07/05 22:05:23;;;;;;;4.32;3.28;;;;;;;21.12;53.11;99282.84;5026870;28;20188;-69
2022/07/05 22:07:50;;;;;;;4.40;3.15;;;;;;;20.49;53.36;99182.34;5072672;28;20059;-68
2022/07/05 22:10:18;;;;;;;3.95;3.05;;;;;;;20.63;53.71;99214.13;5108515;28;20055;-69
2022/07/05 22:12:45;;;;;;;4.22;3.00;;;;;;;20.80;53.78;99250.16;5107716;28;20056;-69
2022/07/05 22:15:12;;;;;;;4.72;3.35;;;;;;;21.01;53.62;99283.06;5107813;28;20052;-69
2022/07/05 22:17:41;;;;;;;4.25;2.65;;;;;;;20.99;53.91;99284.22;5107515;28;20056;-69
2022/07/05 22:20:09;;;;;;;4.65;3.25;;;;;;;21.00;53.61;99283.22;5089660;28;20097;-69
2022/07/05 22:22:36;;;;;;;4.90;2.72;;;;;;;21.00;53.85;99285.91;5107425;28;20064;-68
2022/07/05 22:25:04;;;;;;;7.40;5.40;;;;;;;21.00;54.07;99289.44;5107839;28;20054;-68
2022/07/05 22:27:31;;;;;;;7.15;5.38;;;;;;;20.93;54.36;99293.75;5107705;28;20350;-68
2022/07/05 22:29:58;;;;;;;6.38;5.70;;;;;;;20.98;53.90;99295.97;5107595;28;20109;-68
2022/07/05 22:32:25;;;;;;;5.70;4.53;;;;;;;20.89;54.35;99273.50;5107655;28;20101;-68
2022/07/05 22:34:54;;;;;;;4.82;4.15;;;;;;;20.86;53.89;99270.25;5107108;28;20086;-68
2022/07/05 22:37:21;;;;;;;4.28;3.28;;;;;;;20.95;53.89;99288.19;5107235;28;20059;-68
2022/07/05 22:39:49;;;;;;;4.30;3.45;;;;;;;20.94;54.48;99289.19;5107443;28;20059;-68
2022/07/05 22:42:16;;;;;;;4.28;3.22;;;;;;;20.92;54.67;99293.91;5107513;28;20059;-68
2022/07/05 22:44:43;;;;;;;3.67;3.28;;;;;;;20.93;54.85;99299.13;5107232;28;20056;-68
2022/07/05 22:47:10;;;;;;;4.05;3.53;;;;;;;20.91;54.74;99284.97;5107294;28;20062;-68
2022/07/05 22:49:37;;;;;;;6.82;5.95;;;;;;;20.81;54.77;99260.78;5106835;28;20181;-68
2022/07/05 22:52:07;;;;;;;13.35;11.95;;;;;;;20.93;55.23;99288.34;5107162;28;20056;-68
2022/07/05 22:54:34;;;;;;;11.25;9.02;;;;;;;20.91;55.86;99286.81;5107023;28;20108;-68
2022/07/05 22:57:01;;;;;;;18.67;16.73;;;;;;;20.85;55.83;99285.56;5088762;28;20056;-68
2022/07/05 22:59:28;;;;;;;15.05;13.20;;;;;;;20.80;56.12;99279.78;5106192;28;20056;-68
2022/07/05 23:01:55;;;;;;;13.82;12.43;;;;;;;20.65;56.57;99292.91;5106804;28;20059;-69
2022/07/05 23:04:22;;;;;;;18.23;14.80;;;;;;;20.71;56.55;99291.47;5106839;28;20059;-68
2022/07/05 23:06:50;;;;;;;11.30;9.80;;;;;;;20.75;56.34;99280.25;5106906;28;20056;-68
2022/07/05 23:09:18;;;;;;;9.18;6.10;;;;;;;20.69;55.98;99248.53;5106784;28;20056;-68
2022/07/05 23:11:45;;;;;;;4.95;3.95;;;;;;;20.90;55.66;99285.97;5106642;28;20056;-68
2022/07/05 23:14:12;;;;;;;6.15;4.53;;;;;;;20.93;55.69;99274.03;5106709;28;20056;-68
2022/07/05 23:16:39;;;;;;;3.88;2.90;;;;;;;20.92;55.62;99283.97;5106367;28;20105;-68
2022/07/05 23:19:07;;;;;;;3.97;3.33;;;;;;;20.70;55.72;99263.69;5106747;28;20314;-70
2022/07/05 23:21:34;;;;;;;3.72;3.25;;;;;;;20.83;56.24;99287.56;5106603;28;20312;-70
2022/07/05 23:26:47;;;;;;;4.30;2.67;;;;;;;20.79;55.99;99295.09;5106653;28;20089;-70
2022/07/05 23:29:14;;;;;;;4.07;2.92;;;;;;;20.75;55.86;99288.31;5106441;28;20055;-70
